sensor_id;sensor_type;location;lat;lon;timestamp;temperature;humidity
18611;DHT22;9435;52.122;5.502;2023-03-11T00:01:00;0.70;99.90
18611;DHT22;9435;52.122;5.502;2023-03-11T00:03:27;0.70;99.90
18611;DHT22;9435;52.122;5.502;2023-03-11T00:05:58;0.70;99.90
18611;DHT22;9435;52.122;5.502;2023-03-11T00:08:26;0.60;99.90
18611;DHT22;9435;52.122;5.502;2023-03-11T00:10:55;0.60;99.90
18611;DHT22;9435;52.122;5.502;2023-03-11T00:13:23;0.60;99.90
18611;DHT22;9435;52.122;5.502;2023-03-11T00:15:52;0.70;99.90
18611;DHT22;9435;52.122;5.502;2023-03-11T00:18:21;0.70;99.90
18611;DHT22;9435;52.122;5.502;2023-03-11T00:20:52;0.70;99.90
18611;DHT22;9435;52.122;5.502;2023-03-11T00:23:21;0.70;99.90
18611;DHT22;9435;52.122;5.502;2023-03-11T00:25:48;0.70;99.90
18611;DHT22;9435;52.122;5.502;2023-03-11T00:28:15;0.70;99.90
18611;DHT22;9435;52.122;5.502;2023-03-11T00:30:45;0.70;99.90
18611;DHT22;9435;52.122;5.502;2023-03-11T00:33:13;0.70;99.90
18611;DHT22;9435;52.122;5.502;2023-03-11T00:35:41;0.60;99.90
18611;DHT22;9435;52.122;5.502;2023-03-11T00:38:11;0.60;99.90
18611;DHT22;9435;52.122;5.502;2023-03-11T00:40:41;0.60;99.90
18611;DHT22;9435;52.122;5.502;2023-03-11T00:43:09;0.60;99.90
18611;DHT22;9435;52.122;5.502;2023-03-11T00:45:36;0.60;99.90
18611;DHT22;9435;52.122;5.502;2023-03-11T00:48:04;0.60;99.90
18611;DHT22;9435;52.122;5.502;2023-03-11T00:50:32;0.50;99.90
18611;DHT22;9435;52.122;5.502;2023-03-11T00:53:01;0.50;99.90
18611;DHT22;9435;52.122;5.502;2023-03-11T00:55:30;0.50;99.90
18611;DHT22;9435;52.122;5.502;2023-03-11T00:58:03;0.50;99.90
18611;DHT22;9435;52.122;5.502;2023-03-11T01:00:30;0.50;99.90
18611;DHT22;9435;52.122;5.502;2023-03-11T01:02:58;0.50;99.90
18611;DHT22;9435;52.122;5.502;2023-03-11T01:05:27;0.50;99.90
18611;DHT22;9435;52.122;5.502;2023-03-11T01:07:55;0.50;99.90
18611;DHT22;9435;52.122;5.502;2023-03-11T01:10:22;0.50;99.90
18611;DHT22;9435;52.122;5.502;2023-03-11T01:12:49;0.50;99.90
18611;DHT22;9435;52.122;5.502;2023-03-11T01:15:20;0.50;99.90
18611;DHT22;9435;52.122;5.502;2023-03-11T01:17:47;0.40;99.90
18611;DHT22;9435;52.122;5.502;2023-03-11T01:20:15;0.40;99.90
18611;DHT22;9435;52.122;5.502;2023-03-11T01:22:42;0.50;99.90
18611;DHT22;9435;52.122;5.502;2023-03-11T01:25:11;0.40;99.90
18611;DHT22;9435;52.122;5.502;2023-03-11T01:27:38;0.50;99.90
18611;DHT22;9435;52.122;5.502;2023-03-11T01:30:06;0.50;99.90
18611;DHT22;9435;52.122;5.502;2023-03-11T01:32:35;0.50;99.90
18611;DHT22;9435;52.122;5.502;2023-03-11T01:35:02;0.50;99.90
18611;DHT22;9435;52.122;5.502;2023-03-11T01:37:29;0.50;99.90
18611;DHT22;9435;52.122;5.502;2023-03-11T01:39:56;0.40;99.90
18611;DHT22;9435;52.122;5.502;2023-03-11T01:42:23;0.50;99.90
18611;DHT22;9435;52.122;5.502;2023-03-11T01:44:50;0.50;99.90
18611;DHT22;9435;52.122;5.502;2023-03-11T01:47:33;0.50;99.90
18611;DHT22;9435;52.122;5.502;2023-03-11T01:50:03;0.50;99.90
18611;DHT22;9435;52.122;5.502;2023-03-11T01:52:32;0.60;99.90
18611;DHT22;9435;52.122;5.502;2023-03-11T01:54:59;0.60;99.90
18611;DHT22;9435;52.122;5.502;2023-03-11T01:57:26;0.60;99.90
18611;DHT22;9435;52.122;5.502;2023-03-11T01:59:56;0.60;99.90
18611;DHT22;9435;52.122;5.502;2023-03-11T02:02:28;0.60;99.90
18611;DHT22;9435;52.122;5.502;2023-03-11T02:04:59;0.60;99.90
18611;DHT22;9435;52.122;5.502;2023-03-11T02:07:29;0.60;99.90
18611;DHT22;9435;52.122;5.502;2023-03-11T02:09:56;0.60;99.90
18611;DHT22;9435;52.122;5.502;2023-03-11T02:12:23;0.60;99.90
18611;DHT22;9435;52.122;5.502;2023-03-11T02:14:51;0.60;99.90
18611;DHT22;9435;52.122;5.502;2023-03-11T02:17:19;0.60;99.90
18611;DHT22;9435;52.122;5.502;2023-03-11T02:22:52;0.60;99.90
18611;DHT22;9435;52.122;5.502;2023-03-11T02:25:27;0.60;99.90
18611;DHT22;9435;52.122;5.502;2023-03-11T02:28:00;0.60;99.90
18611;DHT22;9435;52.122;5.502;2023-03-11T02:30:30;0.70;99.90
18611;DHT22;9435;52.122;5.502;2023-03-11T02:32:59;0.60;99.90
18611;DHT22;9435;52.122;5.502;2023-03-11T02:35:27;0.60;99.90
18611;DHT22;9435;52.122;5.502;2023-03-11T02:37:54;0.70;99.90
18611;DHT22;9435;52.122;5.502;2023-03-11T02:40:48;0.70;99.90
18611;DHT22;9435;52.122;5.502;2023-03-11T02:43:21;0.60;99.90
18611;DHT22;9435;52.122;5.502;2023-03-11T02:45:49;0.70;99.90
18611;DHT22;9435;52.122;5.502;2023-03-11T02:48:16;0.70;99.90
18611;DHT22;9435;52.122;5.502;2023-03-11T02:50:45;0.60;99.90
18611;DHT22;9435;52.122;5.502;2023-03-11T02:53:13;0.60;99.90
18611;DHT22;9435;52.122;5.502;2023-03-11T02:55:40;0.60;99.90
18611;DHT22;9435;52.122;5.502;2023-03-11T02:58:07;0.60;99.90
18611;DHT22;9435;52.122;5.502;2023-03-11T03:00:36;0.60;99.90
18611;DHT22;9435;52.122;5.502;2023-03-11T03:03:03;0.50;99.90
18611;DHT22;9435;52.122;5.502;2023-03-11T03:05:30;0.50;99.90
18611;DHT22;9435;52.122;5.502;2023-03-11T03:07:57;0.40;99.90
18611;DHT22;9435;52.122;5.502;2023-03-11T03:10:24;0.40;99.90
18611;DHT22;9435;52.122;5.502;2023-03-11T03:12:51;0.30;99.90
18611;DHT22;9435;52.122;5.502;2023-03-11T03:15:19;0.20;99.90
18611;DHT22;9435;52.122;5.502;2023-03-11T03:17:47;0.20;99.90
18611;DHT22;9435;52.122;5.502;2023-03-11T03:20:16;0.20;99.90
18611;DHT22;9435;52.122;5.502;2023-03-11T03:22:44;0.10;99.90
18611;DHT22;9435;52.122;5.502;2023-03-11T03:25:11;0.00;99.90
18611;DHT22;9435;52.122;5.502;2023-03-11T03:27:38;-0.10;99.90
18611;DHT22;9435;52.122;5.502;2023-03-11T03:30:07;-0.30;99.90
18611;DHT22;9435;52.122;5.502;2023-03-11T03:32:35;-0.40;99.90
18611;DHT22;9435;52.122;5.502;2023-03-11T03:35:04;-0.40;99.90
18611;DHT22;9435;52.122;5.502;2023-03-11T03:37:32;-0.40;99.90
18611;DHT22;9435;52.122;5.502;2023-03-11T03:39:59;-0.40;99.90
18611;DHT22;9435;52.122;5.502;2023-03-11T03:42:26;-0.50;99.90
18611;DHT22;9435;52.122;5.502;2023-03-11T03:44:54;-0.50;99.90
18611;DHT22;9435;52.122;5.502;2023-03-11T03:47:21;-0.50;99.90
18611;DHT22;9435;52.122;5.502;2023-03-11T03:49:48;-0.60;99.90
18611;DHT22;9435;52.122;5.502;2023-03-11T03:52:16;-0.60;99.90
18611;DHT22;9435;52.122;5.502;2023-03-11T03:54:44;-0.50;99.90
18611;DHT22;9435;52.122;5.502;2023-03-11T03:57:11;-0.50;99.90
18611;DHT22;9435;52.122;5.502;2023-03-11T03:59:38;-0.50;99.90
18611;DHT22;9435;52.122;5.502;2023-03-11T04:02:05;-0.50;99.90
18611;DHT22;9435;52.122;5.502;2023-03-11T04:04:32;-0.50;99.90
18611;DHT22;9435;52.122;5.502;2023-03-11T04:06:59;-0.50;99.90
18611;DHT22;9435;52.122;5.502;2023-03-11T04:09:27;-0.50;99.90
18611;DHT22;9435;52.122;5.502;2023-03-11T04:11:54;-0.40;99.90
18611;DHT22;9435;52.122;5.502;2023-03-11T04:14:22;-0.40;99.90
18611;DHT22;9435;52.122;5.502;2023-03-11T04:16:49;-0.40;99.90
18611;DHT22;9435;52.122;5.502;2023-03-11T04:19:16;-0.40;99.90
18611;DHT22;9435;52.122;5.502;2023-03-11T04:21:43;-0.40;99.90
18611;DHT22;9435;52.122;5.502;2023-03-11T04:24:10;-0.40;99.90
18611;DHT22;9435;52.122;5.502;2023-03-11T04:26:38;-0.40;99.90
18611;DHT22;9435;52.122;5.502;2023-03-11T04:29:05;-0.40;99.90
18611;DHT22;9435;52.122;5.502;2023-03-11T04:31:33;-0.40;99.90
18611;DHT22;9435;52.122;5.502;2023-03-11T04:34:00;-0.40;99.90
18611;DHT22;9435;52.122;5.502;2023-03-11T04:36:27;-0.50;99.90
18611;DHT22;9435;52.122;5.502;2023-03-11T04:38:55;-0.50;99.90
18611;DHT22;9435;52.122;5.502;2023-03-11T04:41:22;-0.50;99.90
18611;DHT22;9435;52.122;5.502;2023-03-11T04:43:51;-0.50;99.90
18611;DHT22;9435;52.122;5.502;2023-03-11T04:46:18;-0.60;99.90
18611;DHT22;9435;52.122;5.502;2023-03-11T04:48:45;-0.50;99.90
18611;DHT22;9435;52.122;5.502;2023-03-11T04:51:12;-0.50;99.90
18611;DHT22;9435;52.122;5.502;2023-03-11T04:53:39;-0.60;99.90
18611;DHT22;9435;52.122;5.502;2023-03-11T04:56:06;-0.60;99.90
18611;DHT22;9435;52.122;5.502;2023-03-11T04:58:33;-0.60;99.90
18611;DHT22;9435;52.122;5.502;2023-03-11T05:01:02;-0.60;99.90
18611;DHT22;9435;52.122;5.502;2023-03-11T05:03:29;-0.60;99.90
18611;DHT22;9435;52.122;5.502;2023-03-11T05:05:56;-0.60;99.90
18611;DHT22;9435;52.122;5.502;2023-03-11T05:08:25;-0.60;99.90
18611;DHT22;9435;52.122;5.502;2023-03-11T05:10:52;-0.70;99.90
18611;DHT22;9435;52.122;5.502;2023-03-11T05:13:19;-0.70;99.90
18611;DHT22;9435;52.122;5.502;2023-03-11T05:15:47;-0.70;99.90
18611;DHT22;9435;52.122;5.502;2023-03-11T05:18:16;-0.70;99.90
18611;DHT22;9435;52.122;5.502;2023-03-11T05:20:43;-0.80;99.90
18611;DHT22;9435;52.122;5.502;2023-03-11T05:23:10;-0.90;99.90
18611;DHT22;9435;52.122;5.502;2023-03-11T05:25:39;-1.00;99.90
18611;DHT22;9435;52.122;5.502;2023-03-11T05:28:07;-1.00;99.90
18611;DHT22;9435;52.122;5.502;2023-03-11T05:30:36;-1.10;99.90
18611;DHT22;9435;52.122;5.502;2023-03-11T05:33:04;-1.20;99.90
18611;DHT22;9435;52.122;5.502;2023-03-11T05:35:33;-1.20;99.90
18611;DHT22;9435;52.122;5.502;2023-03-11T05:38:00;-1.20;99.90
18611;DHT22;9435;52.122;5.502;2023-03-11T05:40:27;-1.20;99.90
18611;DHT22;9435;52.122;5.502;2023-03-11T05:42:54;-1.20;99.90
18611;DHT22;9435;52.122;5.502;2023-03-11T05:45:22;-1.30;99.90
18611;DHT22;9435;52.122;5.502;2023-03-11T05:47:50;-1.30;99.90
18611;DHT22;9435;52.122;5.502;2023-03-11T05:50:18;-1.40;99.90
18611;DHT22;9435;52.122;5.502;2023-03-11T05:52:47;-1.40;99.90
18611;DHT22;9435;52.122;5.502;2023-03-11T05:55:14;-1.50;99.90
18611;DHT22;9435;52.122;5.502;2023-03-11T05:57:41;-1.50;99.90
18611;DHT22;9435;52.122;5.502;2023-03-11T06:00:09;-1.50;99.90
18611;DHT22;9435;52.122;5.502;2023-03-11T06:02:37;-1.50;99.90
18611;DHT22;9435;52.122;5.502;2023-03-11T06:05:06;-1.40;99.90
18611;DHT22;9435;52.122;5.502;2023-03-11T06:07:34;-1.50;99.90
18611;DHT22;9435;52.122;5.502;2023-03-11T06:10:03;-1.60;99.90
18611;DHT22;9435;52.122;5.502;2023-03-11T06:12:33;-1.60;99.90
18611;DHT22;9435;52.122;5.502;2023-03-11T06:15:00;-1.60;99.90
18611;DHT22;9435;52.122;5.502;2023-03-11T06:17:27;-1.60;99.90
18611;DHT22;9435;52.122;5.502;2023-03-11T06:19:54;-1.60;99.90
18611;DHT22;9435;52.122;5.502;2023-03-11T06:22:21;-1.60;99.90
18611;DHT22;9435;52.122;5.502;2023-03-11T06:24:48;-1.60;99.90
18611;DHT22;9435;52.122;5.502;2023-03-11T06:27:17;-1.60;99.90
18611;DHT22;9435;52.122;5.502;2023-03-11T06:29:44;-1.60;99.90
18611;DHT22;9435;52.122;5.502;2023-03-11T06:32:11;-1.50;99.90
18611;DHT22;9435;52.122;5.502;2023-03-11T06:34:38;-1.60;99.90
18611;DHT22;9435;52.122;5.502;2023-03-11T06:37:05;-1.60;99.90
18611;DHT22;9435;52.122;5.502;2023-03-11T06:39:32;-1.50;99.90
18611;DHT22;9435;52.122;5.502;2023-03-11T06:41:59;-1.60;99.90
18611;DHT22;9435;52.122;5.502;2023-03-11T06:44:27;-1.60;99.90
18611;DHT22;9435;52.122;5.502;2023-03-11T06:46:56;-1.60;99.90
18611;DHT22;9435;52.122;5.502;2023-03-11T06:49:25;-1.60;99.90
18611;DHT22;9435;52.122;5.502;2023-03-11T06:51:52;-1.60;99.90
18611;DHT22;9435;52.122;5.502;2023-03-11T06:54:19;-1.60;99.90
18611;DHT22;9435;52.122;5.502;2023-03-11T06:56:47;-1.50;99.90
18611;DHT22;9435;52.122;5.502;2023-03-11T06:59:14;-1.50;99.90
18611;DHT22;9435;52.122;5.502;2023-03-11T07:01:43;-1.40;99.90
18611;DHT22;9435;52.122;5.502;2023-03-11T07:04:10;-1.40;99.90
18611;DHT22;9435;52.122;5.502;2023-03-11T07:06:37;-1.30;99.90
18611;DHT22;9435;52.122;5.502;2023-03-11T07:09:04;-1.20;99.90
18611;DHT22;9435;52.122;5.502;2023-03-11T07:11:31;-1.20;99.90
18611;DHT22;9435;52.122;5.502;2023-03-11T07:13:58;-1.10;99.90
18611;DHT22;9435;52.122;5.502;2023-03-11T07:16:26;-1.00;99.90
18611;DHT22;9435;52.122;5.502;2023-03-11T07:18:58;-0.90;99.90
18611;DHT22;9435;52.122;5.502;2023-03-11T07:21:28;-0.70;99.90
18611;DHT22;9435;52.122;5.502;2023-03-11T07:23:58;-0.50;99.90
18611;DHT22;9435;52.122;5.502;2023-03-11T07:26:27;-0.40;99.90
18611;DHT22;9435;52.122;5.502;2023-03-11T07:28:55;-0.20;99.90
18611;DHT22;9435;52.122;5.502;2023-03-11T07:31:24;0.00;99.90
18611;DHT22;9435;52.122;5.502;2023-03-11T07:33:57;0.20;99.90
18611;DHT22;9435;52.122;5.502;2023-03-11T07:36:26;0.30;99.90
18611;DHT22;9435;52.122;5.502;2023-03-11T07:38:55;0.40;99.90
18611;DHT22;9435;52.122;5.502;2023-03-11T07:41:24;0.50;99.90
18611;DHT22;9435;52.122;5.502;2023-03-11T07:43:53;0.60;99.90
18611;DHT22;9435;52.122;5.502;2023-03-11T07:46:22;0.70;99.90
18611;DHT22;9435;52.122;5.502;2023-03-11T07:48:50;0.90;99.90
18611;DHT22;9435;52.122;5.502;2023-03-11T07:51:20;1.10;99.90
18611;DHT22;9435;52.122;5.502;2023-03-11T07:53:48;1.30;99.90
18611;DHT22;9435;52.122;5.502;2023-03-11T07:56:16;1.40;99.90
18611;DHT22;9435;52.122;5.502;2023-03-11T07:58:44;1.60;99.90
18611;DHT22;9435;52.122;5.502;2023-03-11T08:01:12;1.70;99.90
18611;DHT22;9435;52.122;5.502;2023-03-11T08:03:41;1.80;99.90
18611;DHT22;9435;52.122;5.502;2023-03-11T08:06:12;1.90;99.90
18611;DHT22;9435;52.122;5.502;2023-03-11T08:08:42;2.00;99.90
18611;DHT22;9435;52.122;5.502;2023-03-11T08:11:09;2.10;99.90
18611;DHT22;9435;52.122;5.502;2023-03-11T08:13:37;2.20;99.90
18611;DHT22;9435;52.122;5.502;2023-03-11T08:16:06;2.20;99.90
18611;DHT22;9435;52.122;5.502;2023-03-11T08:18:35;2.30;99.90
18611;DHT22;9435;52.122;5.502;2023-03-11T08:21:03;2.40;99.90
18611;DHT22;9435;52.122;5.502;2023-03-11T08:23:31;2.50;99.90
18611;DHT22;9435;52.122;5.502;2023-03-11T08:26:02;2.60;99.90
18611;DHT22;9435;52.122;5.502;2023-03-11T08:28:29;2.80;99.90
18611;DHT22;9435;52.122;5.502;2023-03-11T08:30:56;2.90;99.90
18611;DHT22;9435;52.122;5.502;2023-03-11T08:33:23;2.90;99.90
18611;DHT22;9435;52.122;5.502;2023-03-11T08:35:50;3.00;99.90
18611;DHT22;9435;52.122;5.502;2023-03-11T08:38:17;2.90;99.90
18611;DHT22;9435;52.122;5.502;2023-03-11T08:40:46;3.00;99.90
18611;DHT22;9435;52.122;5.502;2023-03-11T08:43:14;2.90;99.90
18611;DHT22;9435;52.122;5.502;2023-03-11T08:45:41;2.90;99.90
18611;DHT22;9435;52.122;5.502;2023-03-11T08:48:10;3.00;99.90
18611;DHT22;9435;52.122;5.502;2023-03-11T08:50:39;3.10;99.90
18611;DHT22;9435;52.122;5.502;2023-03-11T08:53:07;3.10;99.90
18611;DHT22;9435;52.122;5.502;2023-03-11T08:55:34;3.20;99.90
18611;DHT22;9435;52.122;5.502;2023-03-11T08:58:01;3.20;99.90
18611;DHT22;9435;52.122;5.502;2023-03-11T09:03:46;3.20;99.90
18611;DHT22;9435;52.122;5.502;2023-03-11T09:06:15;3.20;99.90
18611;DHT22;9435;52.122;5.502;2023-03-11T09:08:42;3.20;99.90
18611;DHT22;9435;52.122;5.502;2023-03-11T09:11:09;3.30;99.90
18611;DHT22;9435;52.122;5.502;2023-03-11T09:17:02;3.40;99.90
18611;DHT22;9435;52.122;5.502;2023-03-11T09:19:30;3.50;99.90
18611;DHT22;9435;52.122;5.502;2023-03-11T09:21:59;3.50;99.90
18611;DHT22;9435;52.122;5.502;2023-03-11T09:24:26;3.50;99.90
18611;DHT22;9435;52.122;5.502;2023-03-11T09:26:53;3.50;99.90
18611;DHT22;9435;52.122;5.502;2023-03-11T09:29:20;3.50;99.90
18611;DHT22;9435;52.122;5.502;2023-03-11T09:31:47;3.60;99.90
18611;DHT22;9435;52.122;5.502;2023-03-11T09:34:14;3.60;99.90
18611;DHT22;9435;52.122;5.502;2023-03-11T09:36:43;3.60;99.90
18611;DHT22;9435;52.122;5.502;2023-03-11T09:39:10;3.60;99.90
18611;DHT22;9435;52.122;5.502;2023-03-11T09:41:41;3.60;99.90
18611;DHT22;9435;52.122;5.502;2023-03-11T09:44:17;3.70;99.90
18611;DHT22;9435;52.122;5.502;2023-03-11T09:49:57;3.60;99.90
18611;DHT22;9435;52.122;5.502;2023-03-11T09:52:32;3.80;99.90
18611;DHT22;9435;52.122;5.502;2023-03-11T09:57:55;4.00;99.90
18611;DHT22;9435;52.122;5.502;2023-03-11T10:00:24;4.10;99.90
18611;DHT22;9435;52.122;5.502;2023-03-11T10:02:51;4.20;99.90
18611;DHT22;9435;52.122;5.502;2023-03-11T10:05:22;4.30;99.90
18611;DHT22;9435;52.122;5.502;2023-03-11T10:07:57;4.30;99.90
18611;DHT22;9435;52.122;5.502;2023-03-11T10:10:29;4.60;99.90
18611;DHT22;9435;52.122;5.502;2023-03-11T10:13:07;4.70;99.90
18611;DHT22;9435;52.122;5.502;2023-03-11T10:15:41;4.60;99.90
18611;DHT22;9435;52.122;5.502;2023-03-11T10:18:25;4.50;99.90
18611;DHT22;9435;52.122;5.502;2023-03-11T10:20:58;4.50;99.90
18611;DHT22;9435;52.122;5.502;2023-03-11T10:23:31;4.50;99.90
18611;DHT22;9435;52.122;5.502;2023-03-11T10:26:11;4.50;99.90
18611;DHT22;9435;52.122;5.502;2023-03-11T10:28:43;4.50;99.90
18611;DHT22;9435;52.122;5.502;2023-03-11T10:31:19;4.60;99.90
18611;DHT22;9435;52.122;5.502;2023-03-11T10:33:50;4.60;99.90
18611;DHT22;9435;52.122;5.502;2023-03-11T10:36:20;4.70;99.90
18611;DHT22;9435;52.122;5.502;2023-03-11T10:38:54;4.90;99.90
18611;DHT22;9435;52.122;5.502;2023-03-11T10:41:26;4.90;99.90
18611;DHT22;9435;52.122;5.502;2023-03-11T10:44:01;5.00;99.90
18611;DHT22;9435;52.122;5.502;2023-03-11T10:46:29;4.90;99.90
18611;DHT22;9435;52.122;5.502;2023-03-11T10:48:56;5.10;99.90
18611;DHT22;9435;52.122;5.502;2023-03-11T10:51:25;5.10;99.90
18611;DHT22;9435;52.122;5.502;2023-03-11T10:53:56;5.20;99.90
18611;DHT22;9435;52.122;5.502;2023-03-11T10:56:27;5.30;99.90
18611;DHT22;9435;52.122;5.502;2023-03-11T10:58:55;5.20;99.90
18611;DHT22;9435;52.122;5.502;2023-03-11T11:01:23;5.20;99.90
18611;DHT22;9435;52.122;5.502;2023-03-11T11:03:52;5.30;99.90
18611;DHT22;9435;52.122;5.502;2023-03-11T11:06:25;5.40;99.90
18611;DHT22;9435;52.122;5.502;2023-03-11T11:09:22;5.30;99.90
18611;DHT22;9435;52.122;5.502;2023-03-11T11:12:03;5.20;99.90
18611;DHT22;9435;52.122;5.502;2023-03-11T11:14:48;5.00;99.90
18611;DHT22;9435;52.122;5.502;2023-03-11T11:17:18;5.10;99.90
18611;DHT22;9435;52.122;5.502;2023-03-11T11:19:46;5.20;99.90
18611;DHT22;9435;52.122;5.502;2023-03-11T11:22:16;5.30;99.90
18611;DHT22;9435;52.122;5.502;2023-03-11T11:24:46;5.50;99.90
18611;DHT22;9435;52.122;5.502;2023-03-11T11:27:17;5.60;99.90
18611;DHT22;9435;52.122;5.502;2023-03-11T11:29:45;5.70;99.90
18611;DHT22;9435;52.122;5.502;2023-03-11T11:32:19;5.70;99.90
18611;DHT22;9435;52.122;5.502;2023-03-11T11:34:54;5.70;99.90
18611;DHT22;9435;52.122;5.502;2023-03-11T11:37:23;5.70;99.90
18611;DHT22;9435;52.122;5.502;2023-03-11T11:39:54;5.70;99.90
18611;DHT22;9435;52.122;5.502;2023-03-11T11:42:27;5.90;99.90
18611;DHT22;9435;52.122;5.502;2023-03-11T11:44:58;5.90;99.90
18611;DHT22;9435;52.122;5.502;2023-03-11T11:47:29;5.90;99.90
18611;DHT22;9435;52.122;5.502;2023-03-11T11:50:00;6.00;99.90
18611;DHT22;9435;52.122;5.502;2023-03-11T11:52:31;6.00;99.90
18611;DHT22;9435;52.122;5.502;2023-03-11T11:55:05;5.90;99.90
18611;DHT22;9435;52.122;5.502;2023-03-11T11:57:34;5.80;99.90
18611;DHT22;9435;52.122;5.502;2023-03-11T12:00:02;5.80;99.90
18611;DHT22;9435;52.122;5.502;2023-03-11T12:02:45;5.80;99.90
18611;DHT22;9435;52.122;5.502;2023-03-11T12:05:16;5.90;99.90
18611;DHT22;9435;52.122;5.502;2023-03-11T12:08:00;6.00;99.90
18611;DHT22;9435;52.122;5.502;2023-03-11T12:10:40;5.90;99.90
18611;DHT22;9435;52.122;5.502;2023-03-11T12:13:25;6.00;99.90
18611;DHT22;9435;52.122;5.502;2023-03-11T12:15:58;5.80;99.90
18611;DHT22;9435;52.122;5.502;2023-03-11T12:18:31;6.00;99.90
18611;DHT22;9435;52.122;5.502;2023-03-11T12:21:09;6.20;99.90
18611;DHT22;9435;52.122;5.502;2023-03-11T12:23:45;6.30;99.90
18611;DHT22;9435;52.122;5.502;2023-03-11T12:26:19;6.40;99.90
18611;DHT22;9435;52.122;5.502;2023-03-11T12:28:51;6.40;99.90
18611;DHT22;9435;52.122;5.502;2023-03-11T12:31:23;6.40;99.90
18611;DHT22;9435;52.122;5.502;2023-03-11T12:33:55;6.60;99.90
18611;DHT22;9435;52.122;5.502;2023-03-11T12:36:29;6.70;99.90
18611;DHT22;9435;52.122;5.502;2023-03-11T12:38:57;6.80;99.90
18611;DHT22;9435;52.122;5.502;2023-03-11T12:41:29;6.80;99.90
18611;DHT22;9435;52.122;5.502;2023-03-11T12:44:03;6.70;99.90
18611;DHT22;9435;52.122;5.502;2023-03-11T12:46:59;6.70;99.90
18611;DHT22;9435;52.122;5.502;2023-03-11T12:49:27;6.70;99.90
18611;DHT22;9435;52.122;5.502;2023-03-11T12:52:04;6.70;99.90
18611;DHT22;9435;52.122;5.502;2023-03-11T12:54:33;6.60;99.90
18611;DHT22;9435;52.122;5.502;2023-03-11T12:57:04;6.60;99.90
18611;DHT22;9435;52.122;5.502;2023-03-11T13:03:00;6.60;99.90
18611;DHT22;9435;52.122;5.502;2023-03-11T13:05:49;6.60;99.90
18611;DHT22;9435;52.122;5.502;2023-03-11T13:08:20;6.40;99.90
18611;DHT22;9435;52.122;5.502;2023-03-11T13:10:48;6.40;99.90
18611;DHT22;9435;52.122;5.502;2023-03-11T13:13:34;6.50;99.90
18611;DHT22;9435;52.122;5.502;2023-03-11T13:16:37;6.40;99.90
18611;DHT22;9435;52.122;5.502;2023-03-11T13:19:36;6.60;99.90
18611;DHT22;9435;52.122;5.502;2023-03-11T13:22:05;6.70;99.90
18611;DHT22;9435;52.122;5.502;2023-03-11T13:24:49;6.70;99.90
18611;DHT22;9435;52.122;5.502;2023-03-11T13:27:31;6.60;99.90
18611;DHT22;9435;52.122;5.502;2023-03-11T13:30:09;6.60;99.90
18611;DHT22;9435;52.122;5.502;2023-03-11T13:32:59;6.70;99.90
18611;DHT22;9435;52.122;5.502;2023-03-11T13:35:44;6.70;99.90
18611;DHT22;9435;52.122;5.502;2023-03-11T13:38:37;6.70;99.90
18611;DHT22;9435;52.122;5.502;2023-03-11T13:41:13;6.70;99.90
18611;DHT22;9435;52.122;5.502;2023-03-11T13:43:43;6.70;99.90
18611;DHT22;9435;52.122;5.502;2023-03-11T13:46:22;6.50;99.90
18611;DHT22;9435;52.122;5.502;2023-03-11T13:48:56;6.60;99.90
18611;DHT22;9435;52.122;5.502;2023-03-11T13:51:34;6.60;99.90
18611;DHT22;9435;52.122;5.502;2023-03-11T13:54:18;6.70;99.90
18611;DHT22;9435;52.122;5.502;2023-03-11T13:56:50;6.60;99.90
18611;DHT22;9435;52.122;5.502;2023-03-11T13:59:21;6.80;99.90
18611;DHT22;9435;52.122;5.502;2023-03-11T14:01:52;6.70;99.90
18611;DHT22;9435;52.122;5.502;2023-03-11T14:04:24;6.60;99.90
18611;DHT22;9435;52.122;5.502;2023-03-11T14:06:52;6.60;99.90
18611;DHT22;9435;52.122;5.502;2023-03-11T14:09:21;6.50;99.90
18611;DHT22;9435;52.122;5.502;2023-03-11T14:11:49;6.40;99.90
18611;DHT22;9435;52.122;5.502;2023-03-11T14:14:32;6.40;99.90
18611;DHT22;9435;52.122;5.502;2023-03-11T14:17:03;6.40;99.90
18611;DHT22;9435;52.122;5.502;2023-03-11T14:19:31;6.50;99.90
18611;DHT22;9435;52.122;5.502;2023-03-11T14:22:06;6.30;99.90
18611;DHT22;9435;52.122;5.502;2023-03-11T14:24:34;6.30;99.90
18611;DHT22;9435;52.122;5.502;2023-03-11T14:27:07;6.20;99.90
18611;DHT22;9435;52.122;5.502;2023-03-11T14:29:36;6.20;99.90
18611;DHT22;9435;52.122;5.502;2023-03-11T14:32:25;6.30;99.90
18611;DHT22;9435;52.122;5.502;2023-03-11T14:34:52;6.40;99.90
18611;DHT22;9435;52.122;5.502;2023-03-11T14:37:24;6.40;99.90
18611;DHT22;9435;52.122;5.502;2023-03-11T14:39:52;6.30;99.90
18611;DHT22;9435;52.122;5.502;2023-03-11T14:42:22;6.20;99.90
18611;DHT22;9435;52.122;5.502;2023-03-11T14:44:55;6.20;99.90
18611;DHT22;9435;52.122;5.502;2023-03-11T14:47:31;6.20;99.90
18611;DHT22;9435;52.122;5.502;2023-03-11T14:50:00;6.20;99.90
18611;DHT22;9435;52.122;5.502;2023-03-11T14:52:32;6.20;99.90
18611;DHT22;9435;52.122;5.502;2023-03-11T14:55:05;6.20;99.90
18611;DHT22;9435;52.122;5.502;2023-03-11T14:57:36;6.30;99.90
18611;DHT22;9435;52.122;5.502;2023-03-11T15:00:14;6.30;99.90
18611;DHT22;9435;52.122;5.502;2023-03-11T15:02:58;6.40;99.90
18611;DHT22;9435;52.122;5.502;2023-03-11T15:05:33;6.40;99.90
18611;DHT22;9435;52.122;5.502;2023-03-11T15:08:02;6.50;99.90
18611;DHT22;9435;52.122;5.502;2023-03-11T15:10:32;6.50;99.90
18611;DHT22;9435;52.122;5.502;2023-03-11T15:13:11;6.50;99.90
18611;DHT22;9435;52.122;5.502;2023-03-11T15:15:40;6.50;99.90
18611;DHT22;9435;52.122;5.502;2023-03-11T15:18:21;6.50;99.90
18611;DHT22;9435;52.122;5.502;2023-03-11T15:21:01;6.40;99.90
18611;DHT22;9435;52.122;5.502;2023-03-11T15:23:30;6.50;99.90
18611;DHT22;9435;52.122;5.502;2023-03-11T15:25:58;6.40;99.90
18611;DHT22;9435;52.122;5.502;2023-03-11T15:28:27;6.40;99.90
18611;DHT22;9435;52.122;5.502;2023-03-11T15:31:25;6.50;99.90
18611;DHT22;9435;52.122;5.502;2023-03-11T15:34:10;6.50;99.90
18611;DHT22;9435;52.122;5.502;2023-03-11T15:36:39;6.40;99.90
18611;DHT22;9435;52.122;5.502;2023-03-11T15:39:15;6.40;99.90
18611;DHT22;9435;52.122;5.502;2023-03-11T15:41:45;6.20;99.90
18611;DHT22;9435;52.122;5.502;2023-03-11T15:44:30;6.20;99.90
18611;DHT22;9435;52.122;5.502;2023-03-11T15:46:58;6.10;99.90
18611;DHT22;9435;52.122;5.502;2023-03-11T15:49:28;6.10;99.90
18611;DHT22;9435;52.122;5.502;2023-03-11T15:51:57;6.10;99.90
18611;DHT22;9435;52.122;5.502;2023-03-11T15:54:25;6.00;99.90
18611;DHT22;9435;52.122;5.502;2023-03-11T15:56:52;5.90;99.90
18611;DHT22;9435;52.122;5.502;2023-03-11T15:59:23;6.00;99.90
18611;DHT22;9435;52.122;5.502;2023-03-11T16:01:51;6.00;99.90
18611;DHT22;9435;52.122;5.502;2023-03-11T16:04:19;6.00;99.90
18611;DHT22;9435;52.122;5.502;2023-03-11T16:06:48;6.00;99.90
18611;DHT22;9435;52.122;5.502;2023-03-11T16:09:15;6.00;99.90
18611;DHT22;9435;52.122;5.502;2023-03-11T16:11:43;6.00;99.90
18611;DHT22;9435;52.122;5.502;2023-03-11T16:14:14;5.90;99.90
18611;DHT22;9435;52.122;5.502;2023-03-11T16:16:42;5.90;99.90
18611;DHT22;9435;52.122;5.502;2023-03-11T16:19:09;5.90;99.90
18611;DHT22;9435;52.122;5.502;2023-03-11T16:21:39;5.90;99.90
18611;DHT22;9435;52.122;5.502;2023-03-11T16:24:13;5.80;99.90
18611;DHT22;9435;52.122;5.502;2023-03-11T16:26:42;5.80;99.90
18611;DHT22;9435;52.122;5.502;2023-03-11T16:29:09;5.80;99.90
18611;DHT22;9435;52.122;5.502;2023-03-11T16:31:37;5.80;99.90
18611;DHT22;9435;52.122;5.502;2023-03-11T16:34:04;5.70;99.90
18611;DHT22;9435;52.122;5.502;2023-03-11T16:36:31;5.70;99.90